Pagina principale
METAR-TAF:

METAR-TAF

Aeroporti :

Monte Scuro, Italia

latitudine: 39-20N, longitudine: 016-24E, altezza: 1710 m

Osservazione

Il bollettino è stato emesso 1 ora e 2 minuti fa, alle 16:55 UTC
Vento 13 kt da ovest con raffiche fino a 24 kt
Temperature 0°C
Umidità 93%
Pressione 1018 hPa
Visibilità minore di 50 m
nebbia che ghiaccia

METAR: LIBQ 201655Z 26013G24KT 0000 FZFG VV/// M00/M01 Q1018 RMK MON INVIS VAL INVIS VIS MIN 0000

Ora: 18:57 (17:57 UTC)


TAF: mancante

Osservazioni e previsioni meteorologiche di più di 4000 aeroporti (messaggi METAR e TAF).

Le stazioni disponibili sono rappresentate dai dischi gialli e rossi sulla carta.

Puntare il mouse per vedere il nome della stazione.

Clicca sopra per visualizzare le osservazioni e previsioni meteorologiche.

Per cambiare la mappa : fare clic sui pulsanti verdi con una croce nera per ingrandire, il pulsante verde con un trattino per diminuire, o sulla freccia verde per le mappe adiacenti.


METAR-TAF: